Terminal Aerodrome Forecast
Issued by NWS Binghamton, NY

Home | Current Version | Previous Version | Text Only | Print | Product List | Glossary On
Versions: 1 2 3 4 5 6 7 8 9 10 11 12 13 14 15 16 17 18 19 20 21 22
000
FTUS41 KBGM 270200 AAA
TAFAVP
TAF AMD
KAVP 270221Z 2702/2724 30008KT 3SM -SN OVC015
      TEMPO 2702/2703 2SM -SHSN
     FM270600 33005KT P6SM OVC025
     FM271500 33007KT P6SM OVC035=

USA.gov is the U.S. government's official web portal to all federal, state and local government web resources and services.